Plaza, Colorado
Current Conditions -  °F | °C
As of 4:10 AM on Thursday 23 Oct 2014 (Local Time) from KRCV Reporting Station
Clear Clear  
Wind Chill: 31°   Ceiling: Unl
Heat Index: 39°   Visibility: 10mi
Dew Point: 31°   Wind: 14mph
Humidity: 73%   Direction: 260°W
Pressure: 30.31"   Gusts: NA
Location:  37.6359°N, 106.449°W
Report Text: KRCV 231010Z AUTO 26012KT 10SM CLR 04/00 A3031 RMK AO2 T00391005
Loading
Personal Weather Stations






























Interactive Weather Map
Tropical Storm Tracking
New forecast layout! Learn more

10-Day Weather Forecast

Advertisements
Track Severe Weather on mobile